Etusivu
METAR-TAF:

METAR-TAF

Lentoasemat :

Grinnell, Iowa, Yhdysvallat

Leveyspiiri: 41-42-35N, Pituuspiiri: 092-44-09W, korkeus merenpinnasta: 307 m

Tämänhetkinen sää

Tämä raportti tehtiin 21 minuuttia sitten, kello 12.55 UTC
Tuuli 7 kn lännestä
Lämpötila 12°C
Kosteus 82%
Ilmanpaine 1015 hPa
Näkyvyys: 16.1 km
Pilvistä 5500 ft:n korkeudessa

METAR: KGGI 291255Z AUTO 27007KT 10SM OVC055 12/09 A2997 RMK AO2 T01170085

Aika: 08:16 (13:16 UTC)


TAF: puuttuu

Säähavainnot ja -ennusteet yli 4000 lentoasemalta (METAR- ja TAF-raportit).

Käytössä olevat sääasemat on merkitty karttaan keltaisilla ja punaisilla pisteillä.

Aseta hiiri pisteen päälle nähdäksesi sääaseman nimen.

Klikkaa sitten nähdäksesi säähavainnot ja -ennusteet.

Kartan vaihtaminen: klikkaa mustalla rastilla varustettuja vihreitä pisteitä, niin voit zoomata sisään; viivalla varustettua vihreää pistettä, niin voit zoomata ulos tai vihreitä nuolia, niin pääset viereisille kartoille.


METAR-TAF: